Mc Knightstown, Pennsylvania
Current Conditions -  °F | °C
As of 11:53 AM on Thursday 23 Oct 2014 (Local Time) from KRYT Reporting Station
Overcast Overcast  
Wind Chill: 56°   Ceiling: 3200
Heat Index: 56°   Visibility: 10mi
Dew Point: 43°   Wind: 12mph
Humidity: 62%   Direction: 300°WNW
Pressure: 29.91"   Gusts: 20mph
Location:  39.8752°N, 77.3219°W
Report Text: KRYT 231553Z AUTO 30010G17KT 260V010 10SM OVC032 13/06 A2991 RMK AO2 SLP130 T01330061 $
Loading
Personal Weather Stations






























Interactive Weather Map
Tropical Storm Tracking
New forecast layout! Learn more

10-Day Weather Forecast

Advertisements
Track Severe Weather on mobile